Airfield :
LOGIN :

Register | Disclaimer

   EN    FR    IT 

 










Legend :    VFR   Marginal VFR   IFR   Intensive IFR   Very Intensive IFR
Visi :
Ceiling :
>= 8 km
>= 3000ft
5 to 8 km
1000 to 3000 ft
1500m to 5 km
500 to 1000 ft
800 to 1500m
200 to 500 ft
< 800m
< 200 ft
Symbols :   Thunderstorms  Fog  Heavy snow  Heavy precipitations  Wind > 20 kt
SIGMETs :     Misc.  Thunderstorms  Icing  Turbulence  Mountain Waves  Volcanic Ashes







- Airport Elevation : 915 ft
- IATA code : LUG


LSZA - Lugano

CURRENT METAR :
  • 151950Z VRB01KT 8000 OVC047 22/20 Q1023 NOSIG

EXPIRED METARs :
  • 151920Z VRB01KT 8000 BKN046 22/19 Q1023 NOSIG
  • 151850Z AUTO 01001KT 9999 SCT047 22/19 Q1023
  • 151820Z VRB01KT 8000 BKN047 22/19 Q1022 NOSIG
  • 151750Z VRB01KT 8000 BKN047 23/19 Q1022 NOSIG
  • 151720Z AUTO VRB02KT 9999 FEW042 BKN049 24/19 Q1022

TAF TAF LSZA
Valid from the 15 at 15:00 until the 16 at 00:00 UTC


151425Z 1515/1524 VRB03KT 9000 FEW045
BECMG 1516/1519 NSC
ATIS : +41 22 417 40 88
No reported NOTAMs for that airfield.



MET'MAP, your aeronautical weather chart ! - Copyright ORBIFLY December 2007 - Disclaimer

ORBIFLY MET'MAP TEAM :

Programming & Development : Alexandra Zaïnal
Concept & Development : Baudouin d'Aumeries
Co-Development & Prog : Marc-Olivier Méhu
Technical & hardware support : Manuel Goepfert

Contact : metmap@orbifly.com




SOURCES & CREDITS :

   NOAA